Time;durP1;ratioP1;P1;durP2;ratioP2;P2;SDS_P1;SDS_P2;PMS_P1;PMS_P2;Temp;Humidity;BMP_temperature;BMP_pressure;BME280_temperature;BME280_humidity;BME280_pressure;Samples;Min_cycle;Max_cycle;Signal;HPM_P1;HPM_P2
2023/10/29 00:01:26;;;;;;;2.40;0.50;;;;;;;;;;5041174;28;20112;-71
2023/10/29 00:03:55;;;;;;;4.65;0.77;;;;;;;;;;5041064;28;20083;-71
2023/10/29 00:06:22;;;;;;;1.95;0.90;;;;;;;;;;5041230;28;20103;-71
2023/10/29 00:08:48;;;;;;;2.50;0.60;;;;;;;;;;5040781;28;20087;-71
2023/10/29 00:11:15;;;;;;;2.63;0.70;;;;;;;;;;5040795;28;20049;-70
2023/10/29 00:13:43;;;;;;;4.13;0.90;;;;;;;;;;5041177;28;20049;-69
2023/10/29 00:16:13;;;;;;;4.13;0.70;;;;;;;;;;5040747;28;20376;-71
2023/10/29 00:18:40;;;;;;;3.13;0.70;;;;;;;;;;5040961;28;20294;-72
2023/10/29 00:21:07;;;;;;;2.92;0.63;;;;;;;;;;5040736;28;20053;-71
2023/10/29 00:23:34;;;;;;;1.90;0.50;;;;;;;;;;5040590;28;20068;-71
2023/10/29 00:26:01;;;;;;;1.58;0.57;;;;;;;;;;5040825;28;20049;-71
2023/10/29 00:28:27;;;;;;;1.98;0.77;;;;;;;;;;5040649;28;20114;-71
2023/10/29 00:30:55;;;;;;;3.50;0.80;;;;;;;;;;5040447;28;20049;-75
2023/10/29 00:33:22;;;;;;;1.40;0.60;;;;;;;;;;5040748;28;20116;-75
2023/10/29 00:35:50;;;;;;;1.50;0.60;;;;;;;;;;5040629;28;20045;-75
2023/10/29 00:38:16;;;;;;;2.50;0.63;;;;;;;;;;5040644;28;20116;-74
2023/10/29 00:40:43;;;;;;;1.80;0.70;;;;;;;;;;5040554;28;20111;-70
2023/10/29 00:43:18;;;;;;;1.98;0.70;;;;;;;;;;5040522;28;20049;-71
2023/10/29 00:45:51;;;;;;;1.98;0.70;;;;;;;;;;5040195;28;20045;-72
2023/10/29 00:48:18;;;;;;;2.72;0.80;;;;;;;;;;5040321;28;20052;-70
2023/10/29 00:50:45;;;;;;;1.52;0.60;;;;;;;;;;5040158;28;20049;-71
2023/10/29 00:53:15;;;;;;;1.42;0.60;;;;;;;;;;5040092;28;20049;-71
2023/10/29 00:55:42;;;;;;;1.83;0.70;;;;;;;;;;5040249;28;20085;-70
2023/10/29 00:58:10;;;;;;;1.27;0.70;;;;;;;;;;5040545;28;20045;-72
2023/10/29 01:00:38;;;;;;;1.95;0.60;;;;;;;;;;5040099;28;20310;-71
2023/10/29 01:03:04;;;;;;;1.23;0.50;;;;;;;;;;5040476;28;20045;-70
2023/10/29 01:05:31;;;;;;;4.90;0.70;;;;;;;;;;5039865;28;20057;-71
2023/10/29 01:07:58;;;;;;;3.33;0.60;;;;;;;;;;5040144;28;20052;-71
2023/10/29 01:10:25;;;;;;;5.13;0.70;;;;;;;;;;5040035;28;20045;-73
2023/10/29 01:12:52;;;;;;;3.22;0.75;;;;;;;;;;5039822;28;20065;-74
2023/10/29 01:15:19;;;;;;;0.95;0.47;;;;;;;;;;5040320;28;20045;-76
2023/10/29 01:17:45;;;;;;;1.80;0.70;;;;;;;;;;5039880;28;20316;-71
2023/10/29 01:20:12;;;;;;;0.95;0.60;;;;;;;;;;5039949;28;20094;-72
2023/10/29 01:22:39;;;;;;;1.58;0.60;;;;;;;;;;5039789;28;20380;-73
2023/10/29 01:25:09;;;;;;;1.58;0.70;;;;;;;;;;5039563;28;20054;-70
2023/10/29 01:27:39;;;;;;;1.75;0.70;;;;;;;;;;5039623;28;20372;-69
2023/10/29 01:30:06;;;;;;;0.53;0.40;;;;;;;;;;5039985;28;20334;-70
2023/10/29 01:32:33;;;;;;;3.10;0.80;;;;;;;;;;5040061;28;20046;-70
2023/10/29 01:35:00;;;;;;;3.72;0.77;;;;;;;;;;5039968;28;20076;-69
2023/10/29 01:37:26;;;;;;;2.38;0.70;;;;;;;;;;5039541;28;20045;-72
2023/10/29 01:39:53;;;;;;;4.32;0.70;;;;;;;;;;5039533;28;20053;-70
2023/10/29 01:42:23;;;;;;;2.05;0.50;;;;;;;;;;5039964;28;20046;-70
2023/10/29 01:44:52;;;;;;;1.92;0.63;;;;;;;;;;5040094;28;20068;-71
2023/10/29 01:47:19;;;;;;;3.17;0.70;;;;;;;;;;5039980;28;20083;-70
2023/10/29 01:49:48;;;;;;;2.60;0.93;;;;;;;;;;5039888;28;20113;-71
2023/10/29 01:52:15;;;;;;;1.45;0.70;;;;;;;;;;5039425;28;20056;-70
2023/10/29 01:54:42;;;;;;;4.65;0.80;;;;;;;;;;5039509;28;20053;-72
2023/10/29 01:57:08;;;;;;;2.67;0.65;;;;;;;;;;5039379;28;20045;-73
2023/10/29 01:59:35;;;;;;;1.45;0.60;;;;;;;;;;5039543;28;20268;-71
2023/10/29 02:02:02;;;;;;;6.55;0.93;;;;;;;;;;5043499;28;20480;-73
2023/10/29 02:04:30;;;;;;;2.22;0.73;;;;;;;;;;5043659;28;20083;-71
2023/10/29 02:06:56;;;;;;;1.77;0.70;;;;;;;;;;5043221;28;20092;-72
2023/10/29 02:09:23;;;;;;;5.65;1.05;;;;;;;;;;5043233;28;20095;-70
2023/10/29 02:11:50;;;;;;;2.63;0.68;;;;;;;;;;5043242;28;20057;-71
2023/10/29 02:14:17;;;;;;;2.63;0.75;;;;;;;;;;5042672;28;20117;-73
2023/10/29 02:16:43;;;;;;;4.30;1.00;;;;;;;;;;5042881;28;20053;-71
2023/10/29 02:19:10;;;;;;;2.88;0.60;;;;;;;;;;5043385;28;20045;-72
2023/10/29 02:21:37;;;;;;;4.63;1.05;;;;;;;;;;5043394;28;20108;-71
2023/10/29 02:24:03;;;;;;;2.28;0.85;;;;;;;;;;5042858;28;20045;-71
2023/10/29 02:26:31;;;;;;;6.35;0.90;;;;;;;;;;5043052;28;20323;-71
2023/10/29 02:28:57;;;;;;;4.88;0.77;;;;;;;;;;5042911;28;20295;-70
2023/10/29 02:31:24;;;;;;;2.95;0.80;;;;;;;;;;5042852;28;20084;-73
2023/10/29 02:33:51;;;;;;;2.50;0.85;;;;;;;;;;5042917;28;20077;-71
2023/10/29 02:36:17;;;;;;;4.60;0.77;;;;;;;;;;5042972;28;20045;-71
2023/10/29 02:38:44;;;;;;;4.80;0.85;;;;;;;;;;5041198;28;20460;-70
2023/10/29 02:41:11;;;;;;;2.38;0.77;;;;;;;;;;5042651;28;20329;-72
2023/10/29 02:43:42;;;;;;;5.25;1.38;;;;;;;;;;5042932;28;20103;-71
2023/10/29 02:46:10;;;;;;;;;;;;;;;;;;5025865;28;20087;-70
2023/10/29 02:48:37;;;;;;;3.25;0.77;;;;;;;;;;5042551;28;19925;-71
2023/10/29 02:51:04;;;;;;;1.80;0.80;;;;;;;;;;5042700;28;20123;-71
2023/10/29 02:53:31;;;;;;;2.60;0.80;;;;;;;;;;5042241;28;20075;-71
2023/10/29 02:56:01;;;;;;;2.88;0.82;;;;;;;;;;5042538;28;20360;-71
2023/10/29 02:58:28;;;;;;;4.82;0.80;;;;;;;;;;5056286;28;20045;-70
2023/10/29 03:01:15;;;;;;;3.28;0.80;;;;;;;;;;5062508;28;20049;-73
2023/10/29 03:03:44;;;;;;;2.53;0.80;;;;;;;;;;5062397;28;20069;-70
2023/10/29 03:06:12;;;;;;;1.98;0.70;;;;;;;;;;5062498;28;20059;-72
2023/10/29 03:08:38;;;;;;;4.03;0.80;;;;;;;;;;5061557;28;20049;-70
2023/10/29 03:11:05;;;;;;;5.32;0.98;;;;;;;;;;5061872;28;20061;-71
2023/10/29 03:13:32;;;;;;;3.53;0.90;;;;;;;;;;5061937;28;20082;-71
2023/10/29 03:15:59;;;;;;;4.40;0.80;;;;;;;;;;5062271;28;20052;-71
2023/10/29 03:18:29;;;;;;;4.65;1.00;;;;;;;;;;5061813;28;20067;-69
2023/10/29 03:20:57;;;;;;;3.10;0.80;;;;;;;;;;5061913;28;20052;-73
2023/10/29 03:23:24;;;;;;;3.53;1.00;;;;;;;;;;5061322;28;20091;-71
2023/10/29 03:25:51;;;;;;;6.30;1.00;;;;;;;;;;5061610;28;20044;-70
2023/10/29 03:28:18;;;;;;;3.58;1.08;;;;;;;;;;5061510;28;20428;-70
2023/10/29 03:30:44;;;;;;;4.95;0.90;;;;;;;;;;5061874;28;20048;-71
2023/10/29 03:33:11;;;;;;;4.15;0.88;;;;;;;;;;5061597;28;20044;-70
2023/10/29 03:35:38;;;;;;;2.60;0.80;;;;;;;;;;5061999;28;20045;-70
2023/10/29 03:38:05;;;;;;;2.03;0.70;;;;;;;;;;5060919;28;20237;-73
2023/10/29 03:40:31;;;;;;;3.25;0.70;;;;;;;;;;5061674;28;20110;-70
2023/10/29 03:42:58;;;;;;;1.58;0.70;;;;;;;;;;5061683;28;20049;-71
2023/10/29 03:45:25;;;;;;;2.50;0.82;;;;;;;;;;5061503;28;20112;-71
2023/10/29 03:47:51;;;;;;;3.47;0.85;;;;;;;;;;5061385;28;20047;-70
2023/10/29 03:50:18;;;;;;;2.85;0.80;;;;;;;;;;5061444;28;20403;-69
2023/10/29 03:52:44;;;;;;;3.53;0.90;;;;;;;;;;5061121;28;20053;-71
2023/10/29 03:55:11;;;;;;;2.95;0.90;;;;;;;;;;5061222;28;20045;-70
2023/10/29 03:57:38;;;;;;;5.05;1.10;;;;;;;;;;5061030;28;20108;-70
2023/10/29 04:00:06;;;;;;;4.88;1.00;;;;;;;;;;5060948;28;20323;-70
2023/10/29 04:02:33;;;;;;;6.35;0.98;;;;;;;;;;5061076;28;20044;-70
2023/10/29 04:04:59;;;;;;;2.50;1.05;;;;;;;;;;5043700;28;20083;-71
2023/10/29 04:07:35;;;;;;;4.68;1.05;;;;;;;;;;5061195;28;20112;-71
2023/10/29 04:10:02;;;;;;;2.10;0.90;;;;;;;;;;5060908;28;20048;-70
2023/10/29 04:12:29;;;;;;;2.03;0.60;;;;;;;;;;5060939;28;20045;-73
2023/10/29 04:14:56;;;;;;;4.90;0.90;;;;;;;;;;5061207;28;20045;-70
2023/10/29 04:17:23;;;;;;;2.40;1.10;;;;;;;;;;5060873;28;20048;-70
2023/10/29 04:19:50;;;;;;;6.45;1.30;;;;;;;;;;5060809;28;20107;-70
2023/10/29 04:22:16;;;;;;;2.10;0.80;;;;;;;;;;5060546;28;20045;-71
2023/10/29 04:24:43;;;;;;;5.50;1.30;;;;;;;;;;5060079;28;20052;-71
2023/10/29 04:27:10;;;;;;;2.85;0.90;;;;;;;;;;5060640;28;20051;-70
2023/10/29 04:29:37;;;;;;;2.85;0.90;;;;;;;;;;5060779;28;20063;-70
2023/10/29 04:32:04;;;;;;;3.92;1.13;;;;;;;;;;5060803;28;20052;-71
2023/10/29 04:34:30;;;;;;;3.90;1.23;;;;;;;;;;5053430;28;20117;-74
2023/10/29 04:36:57;;;;;;;4.07;1.25;;;;;;;;;;5040138;28;20237;-75
2023/10/29 04:39:24;;;;;;;4.47;1.17;;;;;;;;;;5039448;28;20324;-75
2023/10/29 04:41:51;;;;;;;3.88;0.95;;;;;;;;;;5040090;28;20056;-73
2023/10/29 04:44:18;;;;;;;3.03;1.00;;;;;;;;;;5040371;28;20041;-73
2023/10/29 04:46:44;;;;;;;6.15;1.10;;;;;;;;;;5039990;28;20113;-71
2023/10/29 04:49:11;;;;;;;11.27;1.55;;;;;;;;;;5039708;28;20041;-73
2023/10/29 04:51:38;;;;;;;3.10;1.02;;;;;;;;;;5040308;28;20048;-70
2023/10/29 04:54:05;;;;;;;6.80;1.30;;;;;;;;;;5039384;28;20340;-71
2023/10/29 04:56:32;;;;;;;5.75;0.98;;;;;;;;;;5022500;28;20105;-72
2023/10/29 04:58:59;;;;;;;4.55;1.30;;;;;;;;;;5039965;28;20045;-72
2023/10/29 05:01:26;;;;;;;3.80;1.10;;;;;;;;;;5040058;28;20090;-70
2023/10/29 05:03:53;;;;;;;3.70;1.48;;;;;;;;;;5040010;28;20045;-73
2023/10/29 05:06:20;;;;;;;2.63;0.85;;;;;;;;;;5040127;28;20053;-70
2023/10/29 05:08:49;;;;;;;3.33;1.20;;;;;;;;;;5039386;28;20041;-73
2023/10/29 05:11:16;;;;;;;5.93;1.00;;;;;;;;;;5039674;28;20092;-71
2023/10/29 05:13:43;;;;;;;2.83;0.70;;;;;;;;;;5039765;28;20148;-72
2023/10/29 05:16:11;;;;;;;2.15;0.82;;;;;;;;;;5037126;28;20048;-71
2023/10/29 05:18:38;;;;;;;4.47;0.90;;;;;;;;;;5039710;28;20049;-70
2023/10/29 05:21:05;;;;;;;2.78;1.00;;;;;;;;;;5039574;28;20060;-70
2023/10/29 05:23:32;;;;;;;3.47;0.90;;;;;;;;;;5036922;28;20048;-70
2023/10/29 05:26:01;;;;;;;2.60;0.80;;;;;;;;;;5039949;28;20052;-71
2023/10/29 05:28:27;;;;;;;5.97;0.90;;;;;;;;;;5039450;28;20229;-69
2023/10/29 05:30:54;;;;;;;3.83;1.00;;;;;;;;;;5039594;28;20049;-72
2023/10/29 05:33:20;;;;;;;3.40;0.95;;;;;;;;;;5039874;28;20084;-70
2023/10/29 05:35:47;;;;;;;6.05;1.30;;;;;;;;;;5043587;28;20049;-71
2023/10/29 05:38:14;;;;;;;4.93;0.90;;;;;;;;;;5043664;28;20045;-72
2023/10/29 05:40:42;;;;;;;6.32;1.15;;;;;;;;;;5043753;28;20056;-71
2023/10/29 05:43:08;;;;;;;3.40;1.08;;;;;;;;;;5043980;28;20045;-71
2023/10/29 05:45:35;;;;;;;6.03;1.00;;;;;;;;;;5043652;28;20049;-71
2023/10/29 05:48:02;;;;;;;3.60;0.80;;;;;;;;;;5043844;28;20081;-70
2023/10/29 05:50:29;;;;;;;6.70;1.25;;;;;;;;;;5043519;28;20049;-73
2023/10/29 05:52:56;;;;;;;5.78;1.10;;;;;;;;;;5043645;28;20380;-70
2023/10/29 05:55:23;;;;;;;4.32;1.00;;;;;;;;;;5043367;28;20053;-73
2023/10/29 05:57:49;;;;;;;4.65;1.00;;;;;;;;;;5043566;28;20045;-71
2023/10/29 06:00:17;;;;;;;2.58;0.90;;;;;;;;;;5043246;28;20348;-70
2023/10/29 06:02:44;;;;;;;5.32;0.90;;;;;;;;;;5043414;28;20331;-71
2023/10/29 06:05:11;;;;;;;3.35;0.93;;;;;;;;;;5043495;28;20076;-70
2023/10/29 06:07:44;;;;;;;2.75;1.00;;;;;;;;;;5043365;28;20109;-71
2023/10/29 06:10:13;;;;;;;3.28;0.80;;;;;;;;;;5042874;28;20055;-70
2023/10/29 06:12:43;;;;;;;3.92;1.08;;;;;;;;;;5043220;28;20057;-70
2023/10/29 06:15:11;;;;;;;4.45;1.00;;;;;;;;;;5043234;28;20324;-71
2023/10/29 06:17:38;;;;;;;2.25;1.00;;;;;;;;;;5043336;28;20321;-70
2023/10/29 06:20:08;;;;;;;2.80;0.93;;;;;;;;;;5042849;28;20051;-70
2023/10/29 06:22:35;;;;;;;5.78;1.30;;;;;;;;;;5043329;28;20064;-71
2023/10/29 06:25:04;;;;;;;2.38;0.90;;;;;;;;;;5042625;28;20121;-71
2023/10/29 06:27:31;;;;;;;7.18;1.67;;;;;;;;;;5043253;28;20112;-73
2023/10/29 06:29:57;;;;;;;5.95;1.20;;;;;;;;;;5042785;28;20056;-71
2023/10/29 06:32:24;;;;;;;4.38;0.85;;;;;;;;;;5042923;28;20237;-71
2023/10/29 06:34:51;;;;;;;2.70;0.98;;;;;;;;;;5043039;28;20049;-71
2023/10/29 06:37:18;;;;;;;3.55;0.80;;;;;;;;;;5025484;28;20069;-71
2023/10/29 06:39:44;;;;;;;4.90;1.05;;;;;;;;;;5042495;28;20112;-72
2023/10/29 06:42:11;;;;;;;3.63;1.02;;;;;;;;;;5042675;28;20364;-69
2023/10/29 06:44:37;;;;;;;2.85;0.88;;;;;;;;;;5042712;28;20045;-69
2023/10/29 06:47:07;;;;;;;4.60;1.10;;;;;;;;;;5041982;28;20345;-73
2023/10/29 06:49:34;;;;;;;4.38;1.23;;;;;;;;;;5042805;28;20045;-70
2023/10/29 06:52:01;;;;;;;4.72;1.10;;;;;;;;;;5042680;28;20045;-72
2023/10/29 06:54:27;;;;;;;5.43;1.00;;;;;;;;;;5042368;28;20053;-70
2023/10/29 06:56:54;;;;;;;2.63;1.05;;;;;;;;;;5042451;28;20384;-71
2023/10/29 06:59:21;;;;;;;3.03;1.00;;;;;;;;;;5042303;28;20380;-70
2023/10/29 07:01:48;;;;;;;4.85;1.13;;;;;;;;;;5042021;28;20254;-70
2023/10/29 07:04:15;;;;;;;4.05;1.10;;;;;;;;;;5042227;28;20045;-71
2023/10/29 07:06:42;;;;;;;4.95;1.02;;;;;;;;;;5041982;28;20057;-70
2023/10/29 07:09:15;;;;;;;4.78;1.20;;;;;;;;;;5041880;28;20061;-70
2023/10/29 07:11:43;;;;;;;4.88;1.00;;;;;;;;;;5041960;28;20058;-69
2023/10/29 07:14:13;;;;;;;7.60;1.15;;;;;;;;;;5042130;28;20045;-70
2023/10/29 07:16:44;;;;;;;4.10;1.08;;;;;;;;;;5041996;28;20059;-73
2023/10/29 07:19:12;;;;;;;6.57;1.00;;;;;;;;;;5042211;28;20045;-72
2023/10/29 07:21:43;;;;;;;3.95;0.98;;;;;;;;;;5042052;28;20064;-71
2023/10/29 07:24:09;;;;;;;2.03;0.80;;;;;;;;;;5041930;28;20068;-70
2023/10/29 07:26:40;;;;;;;4.95;1.15;;;;;;;;;;5042143;28;20050;-70
2023/10/29 07:29:11;;;;;;;5.65;1.05;;;;;;;;;;5041836;28;20037;-72
2023/10/29 07:31:38;;;;;;;5.78;1.13;;;;;;;;;;5041979;28;20045;-73
2023/10/29 07:34:05;;;;;;;6.13;1.30;;;;;;;;;;5041868;28;20053;-71
2023/10/29 07:36:31;;;;;;;2.97;1.00;;;;;;;;;;5041838;28;20051;-70
2023/10/29 07:38:58;;;;;;;3.55;0.80;;;;;;;;;;5041181;28;20045;-73
2023/10/29 07:41:25;;;;;;;3.13;1.02;;;;;;;;;;5041399;28;20337;-71
2023/10/29 07:43:52;;;;;;;4.72;1.10;;;;;;;;;;5041714;28;20045;-73
2023/10/29 07:46:20;;;;;;;4.68;1.25;;;;;;;;;;5041376;28;20273;-71
2023/10/29 07:48:47;;;;;;;3.35;0.98;;;;;;;;;;5041815;28;20045;-71
2023/10/29 07:51:13;;;;;;;8.55;1.00;;;;;;;;;;5041485;28;20071;-70
2023/10/29 07:53:40;;;;;;;3.58;1.00;;;;;;;;;;5041042;28;20305;-70
2023/10/29 07:56:10;;;;;;;3.95;0.90;;;;;;;;;;5041242;28;20091;-71
2023/10/29 07:58:37;;;;;;;2.67;0.77;;;;;;;;;;5040559;28;20052;-70
2023/10/29 08:01:15;;;;;;;2.30;0.70;;;;;;;;;;5041076;28;20069;-70
2023/10/29 08:03:44;;;;;;;2.55;0.80;;;;;;;;;;5041484;28;20099;-71
2023/10/29 08:06:12;;;;;;;2.40;0.90;;;;;;;;;;5041107;28;20045;-71
2023/10/29 08:08:40;;;;;;;5.35;1.15;;;;;;;;;;5023054;28;20049;-71
2023/10/29 08:11:17;;;;;;;4.43;1.10;;;;;;;;;;5040867;28;20103;-74
2023/10/29 08:13:45;;;;;;;3.67;1.10;;;;;;;;;;5041185;28;20045;-72
2023/10/29 08:16:12;;;;;;;3.20;0.70;;;;;;;;;;5040901;28;20059;-74
2023/10/29 08:18:47;;;;;;;3.75;1.00;;;;;;;;;;5158388;27;20369;-72
2023/10/29 08:21:18;;;;;;;3.17;1.27;;;;;;;;;;5159053;27;20043;-69
2023/10/29 08:23:45;;;;;;;3.35;1.17;;;;;;;;;;5158575;27;20115;-70
2023/10/29 08:26:11;;;;;;;1.83;0.68;;;;;;;;;;5156398;27;20106;-69
2023/10/29 08:28:38;;;;;;;7.75;1.88;;;;;;;;;;5158775;27;20284;-70
2023/10/29 08:31:05;;;;;;;5.65;0.85;;;;;;;;;;5158654;27;20053;-70
2023/10/29 08:33:31;;;;;;;2.67;0.80;;;;;;;;;;5156521;27;20084;-70
2023/10/29 08:35:58;;;;;;;4.10;0.95;;;;;;;;;;5158702;27;20106;-70
2023/10/29 08:38:25;;;;;;;2.58;0.70;;;;;;;;;;5156891;27;20062;-70
2023/10/29 08:40:52;;;;;;;2.00;0.80;;;;;;;;;;5158558;27;20053;-70
2023/10/29 08:43:18;;;;;;;4.05;0.90;;;;;;;;;;5158674;27;20119;-69
2023/10/29 08:45:45;;;;;;;2.90;0.90;;;;;;;;;;5158318;27;20068;-74
2023/10/29 08:48:12;;;;;;;2.83;0.75;;;;;;;;;;5156248;27;20055;-71
2023/10/29 08:50:39;;;;;;;1.98;0.70;;;;;;;;;;5158523;27;20042;-70
2023/10/29 08:53:06;;;;;;;3.75;0.70;;;;;;;;;;5158545;27;20042;-70
2023/10/29 08:55:36;;;;;;;3.30;0.63;;;;;;;;;;5158799;27;20327;-69
2023/10/29 08:58:03;;;;;;;2.42;0.70;;;;;;;;;;5158506;27;20082;-69
2023/10/29 09:00:29;;;;;;;3.30;0.60;;;;;;;;;;5158489;27;20051;-69
2023/10/29 09:03:13;;;;;;;2.78;0.68;;;;;;;;;;5158241;27;20307;-71
2023/10/29 09:05:41;;;;;;;4.55;0.90;;;;;;;;;;5158484;27;20096;-69
2023/10/29 09:08:08;;;;;;;2.25;0.50;;;;;;;;;;5158215;27;20043;-69
2023/10/29 09:10:36;;;;;;;3.10;0.77;;;;;;;;;;5158663;27;20092;-70
2023/10/29 09:13:03;;;;;;;2.70;0.70;;;;;;;;;;5156297;27;20071;-70
2023/10/29 09:15:30;;;;;;;3.03;0.98;;;;;;;;;;5143668;27;20047;-70
2023/10/29 09:17:57;;;;;;;2.50;0.70;;;;;;;;;;5145109;27;20247;-70
2023/10/29 09:20:24;;;;;;;3.08;0.80;;;;;;;;;;5155836;27;20088;-72
2023/10/29 09:22:52;;;;;;;2.50;0.70;;;;;;;;;;5148105;27;20239;-71
2023/10/29 09:25:19;;;;;;;4.18;0.88;;;;;;;;;;5139910;27;20043;-71
2023/10/29 09:27:47;;;;;;;4.53;0.75;;;;;;;;;;5158262;27;20042;-70
2023/10/29 09:30:13;;;;;;;1.92;0.70;;;;;;;;;;5140995;27;20054;-72
2023/10/29 09:32:40;;;;;;;3.35;0.90;;;;;;;;;;5137210;27;20373;-71
2023/10/29 09:35:07;;;;;;;1.15;0.57;;;;;;;;;;5144037;27;20295;-70
2023/10/29 09:37:34;;;;;;;3.78;0.90;;;;;;;;;;5125862;27;20055;-70
2023/10/29 09:40:02;;;;;;;1.95;0.80;;;;;;;;;;5143615;27;20640;-71
2023/10/29 09:42:30;;;;;;;2.97;0.90;;;;;;;;;;5143804;27;20119;-70
2023/10/29 09:44:58;;;;;;;1.70;0.65;;;;;;;;;;5143967;27;20319;-70
2023/10/29 09:47:27;;;;;;;3.10;0.70;;;;;;;;;;5140067;27;20044;-70
2023/10/29 09:49:54;;;;;;;3.17;0.80;;;;;;;;;;5138509;27;20067;-69
2023/10/29 09:52:28;;;;;;;3.80;0.80;;;;;;;;;;5124843;27;20110;-70
2023/10/29 09:54:56;;;;;;;2.90;0.77;;;;;;;;;;5143078;27;20039;-70
2023/10/29 09:57:23;;;;;;;2.15;0.80;;;;;;;;;;5142847;27;20043;-71
2023/10/29 09:59:50;;;;;;;1.80;0.60;;;;;;;;;;5143433;27;20376;-70
2023/10/29 10:02:16;;;;;;;2.35;1.00;;;;;;;;;;5143849;27;20050;-69
2023/10/29 10:04:45;;;;;;;3.72;1.00;;;;;;;;;;5143330;27;20039;-69
2023/10/29 10:07:12;;;;;;;1.92;0.60;;;;;;;;;;5143681;27;20047;-69
2023/10/29 10:09:52;;;;;;;8.90;1.20;;;;;;;;;;5143272;27;20045;-69
2023/10/29 10:12:20;;;;;;;1.70;0.60;;;;;;;;;;5143189;27;20323;-69
2023/10/29 10:14:48;;;;;;;4.70;0.77;;;;;;;;;;5143183;27;20103;-69
2023/10/29 10:17:15;;;;;;;4.78;1.00;;;;;;;;;;5142800;27;20111;-70
2023/10/29 10:19:42;;;;;;;4.30;0.88;;;;;;;;;;5143116;27;20043;-69
2023/10/29 10:22:09;;;;;;;5.35;0.98;;;;;;;;;;5143069;27;20039;-70
2023/10/29 10:24:37;;;;;;;5.13;1.02;;;;;;;;;;5143043;27;20047;-73
2023/10/29 10:27:05;;;;;;;4.85;0.98;;;;;;;;;;5122554;28;20090;-74
2023/10/29 10:29:31;;;;;;;2.00;0.63;;;;;;;;;;5122646;28;20083;-70
2023/10/29 10:32:05;;;;;;;4.10;0.90;;;;;;;;;;5124690;27;20517;-70
2023/10/29 10:34:42;;;;;;;3.70;1.08;;;;;;;;;;5140676;27;20043;-70
2023/10/29 10:37:09;;;;;;;4.55;0.93;;;;;;;;;;5138895;27;20039;-70
2023/10/29 10:39:35;;;;;;;3.17;0.82;;;;;;;;;;5141820;27;20042;-70
2023/10/29 10:42:03;;;;;;;3.03;0.98;;;;;;;;;;5141451;27;20389;-70
2023/10/29 10:44:31;;;;;;;4.35;0.90;;;;;;;;;;5142518;27;20102;-71
2023/10/29 10:47:02;;;;;;;3.20;0.93;;;;;;;;;;5142650;27;20084;-70
2023/10/29 10:49:32;;;;;;;2.72;0.85;;;;;;;;;;5139672;27;20043;-70
2023/10/29 10:51:59;;;;;;;2.63;0.90;;;;;;;;;;5139021;27;20043;-72
2023/10/29 10:54:26;;;;;;;2.55;0.90;;;;;;;;;;5141602;27;20054;-70
2023/10/29 10:56:55;;;;;;;4.05;0.80;;;;;;;;;;5142193;27;20106;-70
2023/10/29 10:59:24;;;;;;;1.05;0.75;;;;;;;;;;5141714;27;20055;-70
2023/10/29 11:01:54;;;;;;;3.10;0.88;;;;;;;;;;5121807;27;20099;-71
2023/10/29 11:04:23;;;;;;;2.63;0.90;;;;;;;;;;5142197;27;20326;-71
2023/10/29 11:06:51;;;;;;;3.22;1.00;;;;;;;;;;5142292;27;20071;-70
2023/10/29 11:09:19;;;;;;;2.97;0.90;;;;;;;;;;5141699;27;20046;-70
2023/10/29 11:11:53;;;;;;;4.68;1.05;;;;;;;;;;5142004;27;20366;-72
2023/10/29 11:14:21;;;;;;;5.22;1.17;;;;;;;;;;5141868;27;20343;-71
2023/10/29 11:16:55;;;;;;;3.53;0.85;;;;;;;;;;5141554;27;20059;-71
2023/10/29 11:19:47;;;;;;;2.35;0.80;;;;;;;;;;5131679;27;20051;-71
2023/10/29 11:22:13;;;;;;;4.22;0.75;;;;;;;;;;5134254;27;20070;-71
2023/10/29 11:24:40;;;;;;;2.25;0.80;;;;;;;;;;5141022;27;20475;-74
2023/10/29 11:27:39;;;;;;;3.55;0.70;;;;;;;;;;5123204;27;20061;-72
2023/10/29 11:30:22;;;;;;;2.63;1.05;;;;;;;;;;5141097;27;20049;-72
2023/10/29 11:33:10;;;;;;;3.20;0.95;;;;;;;;;;5138930;27;20043;-71
2023/10/29 11:35:37;;;;;;;4.53;0.95;;;;;;;;;;5139827;27;20191;-73
2023/10/29 11:38:26;;;;;;;3.58;1.00;;;;;;;;;;5141007;27;20053;-73
2023/10/29 11:40:53;;;;;;;1.75;0.70;;;;;;;;;;5139317;27;20383;-71
2023/10/29 11:43:22;;;;;;;3.92;0.88;;;;;;;;;;5141242;27;20045;-72
2023/10/29 11:46:00;;;;;;;3.75;0.98;;;;;;;;;;5141185;27;20370;-72
2023/10/29 11:48:29;;;;;;;4.65;1.02;;;;;;;;;;5141309;27;20046;-72
2023/10/29 11:51:11;;;;;;;3.92;1.02;;;;;;;;;;5141176;27;20070;-73
2023/10/29 11:53:38;;;;;;;2.60;0.77;;;;;;;;;;5140771;27;20088;-71
2023/10/29 11:56:09;;;;;;;4.45;0.80;;;;;;;;;;5121624;27;20049;-71
2023/10/29 11:58:37;;;;;;;3.30;0.85;;;;;;;;;;5120579;28;20105;-72
2023/10/29 12:01:04;;;;;;;2.35;0.90;;;;;;;;;;5135009;27;20043;-71
2023/10/29 12:03:31;;;;;;;3.90;1.15;;;;;;;;;;5140603;27;20055;-72
2023/10/29 12:05:58;;;;;;;9.60;1.30;;;;;;;;;;5141051;27;20242;-72
2023/10/29 12:08:30;;;;;;;3.38;1.10;;;;;;;;;;5140717;27;20380;-71
2023/10/29 12:10:58;;;;;;;3.80;0.95;;;;;;;;;;5141563;27;20043;-71
2023/10/29 12:13:24;;;;;;;5.13;1.15;;;;;;;;;;5141054;27;20323;-71
2023/10/29 12:16:03;;;;;;;4.38;1.27;;;;;;;;;;5122889;28;20062;-70
2023/10/29 12:18:30;;;;;;;4.88;1.33;;;;;;;;;;5140643;28;20471;-70
2023/10/29 12:21:08;;;;;;;2.05;0.98;;;;;;;;;;5141468;28;20093;-71
2023/10/29 12:23:36;;;;;;;5.40;1.20;;;;;;;;;;5140830;28;20110;-70
2023/10/29 12:26:04;;;;;;;4.78;1.33;;;;;;;;;;5141354;28;20043;-71
2023/10/29 12:28:36;;;;;;;4.30;1.23;;;;;;;;;;5123232;28;20050;-70
2023/10/29 12:31:03;;;;;;;4.03;1.10;;;;;;;;;;5141110;27;20047;-74
2023/10/29 12:33:34;;;;;;;5.43;0.90;;;;;;;;;;5140916;27;20039;-71
2023/10/29 12:36:05;;;;;;;4.13;1.10;;;;;;;;;;5141103;28;20043;-72
2023/10/29 12:38:37;;;;;;;4.00;0.80;;;;;;;;;;5140811;28;20084;-74
2023/10/29 12:41:16;;;;;;;1.27;0.60;;;;;;;;;;5141058;27;20070;-72
2023/10/29 12:43:48;;;;;;;4.03;1.10;;;;;;;;;;5140842;28;20266;-73
2023/10/29 12:46:25;;;;;;;4.88;0.98;;;;;;;;;;5141116;28;20055;-71
2023/10/29 12:49:08;;;;;;;3.55;1.10;;;;;;;;;;5141174;28;20043;-72
2023/10/29 12:51:37;;;;;;;3.50;0.80;;;;;;;;;;5140595;28;20051;-74
2023/10/29 12:54:19;;;;;;;2.72;0.80;;;;;;;;;;5140534;28;20073;-75
2023/10/29 12:56:57;;;;;;;5.80;0.88;;;;;;;;;;5140540;28;20293;-73
2023/10/29 12:59:27;;;;;;;4.68;1.00;;;;;;;;;;5140413;28;20047;-75
2023/10/29 13:02:05;;;;;;;2.30;0.75;;;;;;;;;;5140559;28;20131;-73
2023/10/29 13:04:33;;;;;;;4.82;0.90;;;;;;;;;;5142667;27;20284;-73
2023/10/29 13:07:11;;;;;;;5.78;0.90;;;;;;;;;;5143822;27;20107;-73
2023/10/29 13:09:39;;;;;;;3.55;1.10;;;;;;;;;;5144063;27;20069;-73
2023/10/29 13:12:10;;;;;;;4.93;1.10;;;;;;;;;;5144505;27;20043;-74
2023/10/29 13:14:38;;;;;;;3.75;0.90;;;;;;;;;;5144558;27;20075;-72
2023/10/29 13:17:09;;;;;;;4.22;0.95;;;;;;;;;;5141776;27;20114;-71
2023/10/29 13:19:36;;;;;;;5.38;1.10;;;;;;;;;;5139555;27;20077;-72
2023/10/29 13:22:03;;;;;;;2.30;0.88;;;;;;;;;;5144357;27;20047;-71
2023/10/29 13:24:30;;;;;;;4.78;1.00;;;;;;;;;;5143937;27;20050;-71
2023/10/29 13:26:57;;;;;;;4.53;1.00;;;;;;;;;;5134170;27;20043;-71
2023/10/29 13:29:24;;;;;;;3.63;1.00;;;;;;;;;;5144206;27;20354;-72
2023/10/29 13:31:51;;;;;;;1.98;0.60;;;;;;;;;;5144148;27;20327;-72
2023/10/29 13:34:18;;;;;;;2.33;0.70;;;;;;;;;;5143691;27;20143;-74
2023/10/29 13:36:44;;;;;;;4.10;0.80;;;;;;;;;;5123075;28;20044;-71
2023/10/29 13:39:11;;;;;;;2.65;0.85;;;;;;;;;;5124928;27;20043;-71
2023/10/29 13:41:38;;;;;;;2.85;1.00;;;;;;;;;;5132124;27;20110;-70
2023/10/29 13:44:06;;;;;;;5.20;1.02;;;;;;;;;;5133251;27;20075;-71
2023/10/29 13:46:33;;;;;;;3.00;0.90;;;;;;;;;;5143763;27;20080;-70
2023/10/29 13:49:00;;;;;;;5.03;0.80;;;;;;;;;;5142243;27;20106;-70
2023/10/29 13:51:27;;;;;;;5.05;0.98;;;;;;;;;;5142691;27;20043;-70
2023/10/29 13:53:54;;;;;;;3.97;1.00;;;;;;;;;;5143713;27;20106;-70
2023/10/29 13:56:22;;;;;;;5.25;1.10;;;;;;;;;;5143124;27;20047;-71
2023/10/29 13:58:49;;;;;;;3.63;0.90;;;;;;;;;;5142119;27;20106;-71
2023/10/29 14:01:21;;;;;;;2.60;0.88;;;;;;;;;;5142195;27;20061;-70
2023/10/29 14:03:49;;;;;;;2.65;0.82;;;;;;;;;;5130787;27;20101;-70
2023/10/29 14:06:17;;;;;;;3.83;1.10;;;;;;;;;;5121730;28;20088;-70
2023/10/29 14:08:44;;;;;;;3.35;0.95;;;;;;;;;;5121547;28;20048;-70
2023/10/29 14:11:13;;;;;;;5.63;1.33;;;;;;;;;;5121407;28;20115;-69
2023/10/29 14:13:40;;;;;;;2.13;0.90;;;;;;;;;;5122663;28;20674;-69
2023/10/29 14:16:10;;;;;;;3.75;0.90;;;;;;;;;;5122830;28;20043;-69
2023/10/29 14:18:37;;;;;;;4.22;1.00;;;;;;;;;;5122726;28;20062;-70
2023/10/29 14:21:03;;;;;;;3.60;0.80;;;;;;;;;;5122670;28;20050;-69
2023/10/29 14:23:30;;;;;;;3.42;0.95;;;;;;;;;;5122464;28;20088;-70
2023/10/29 14:25:57;;;;;;;2.28;0.90;;;;;;;;;;5122352;28;20048;-70
2023/10/29 14:28:23;;;;;;;2.88;1.00;;;;;;;;;;5122505;28;20328;-70
2023/10/29 14:30:50;;;;;;;3.65;1.10;;;;;;;;;;5122687;28;20048;-70
2023/10/29 14:33:17;;;;;;;2.33;0.93;;;;;;;;;;5122525;28;20301;-69
2023/10/29 14:35:44;;;;;;;4.65;1.00;;;;;;;;;;5133134;27;20104;-70
2023/10/29 14:38:13;;;;;;;2.87;1.00;;;;;;;;;;5142578;27;20118;-70
2023/10/29 14:40:40;;;;;;;2.70;0.82;;;;;;;;;;5143193;27;20051;-71
2023/10/29 14:43:06;;;;;;;4.80;0.90;;;;;;;;;;5142582;27;20331;-70
2023/10/29 14:45:51;;;;;;;4.82;1.15;;;;;;;;;;5133160;27;20449;-70
2023/10/29 14:48:19;;;;;;;3.25;1.10;;;;;;;;;;5128991;27;20050;-70
2023/10/29 14:50:48;;;;;;;3.22;0.90;;;;;;;;;;5142507;27;20049;-70